createdAt,value
2023-03-16T05:44:19.803Z,99446.23
2023-03-16T05:47:06.812Z,99446.41
2023-03-16T05:49:36.339Z,99448.15
2023-03-16T05:52:05.595Z,99446.62
2023-03-16T05:54:32.884Z,99445.98
2023-03-16T05:57:06.431Z,99451.55
2023-03-16T05:59:33.454Z,99451.39
2023-03-16T06:02:01.539Z,99453.84
2023-03-16T06:04:28.386Z,99456.96
2023-03-16T06:06:55.107Z,99460.08
2023-03-16T06:09:29.125Z,99462.34
2023-03-16T06:11:55.957Z,99460.42
2023-03-16T06:14:23.339Z,99461.30
2023-03-16T06:16:56.341Z,99465.64
2023-03-16T06:19:23.600Z,99466.16
2023-03-16T06:21:54.238Z,99467.36
2023-03-16T06:24:25.130Z,99469.27
2023-03-16T06:26:53.015Z,99465.29
2023-03-16T06:29:20.161Z,99466.14
2023-03-16T06:31:46.956Z,99465.44
2023-03-16T06:34:14.963Z,99468.38
2023-03-16T06:36:46.280Z,99469.07
2023-03-16T06:39:19.796Z,99467.65
2023-03-16T06:41:52.966Z,99462.58
2023-03-16T06:48:53.275Z,99468.40
2023-03-16T06:52:20.231Z,99468.73
2023-03-16T06:55:38.082Z,99462.77
2023-03-16T06:59:05.839Z,99466.86
2023-03-16T07:02:44.080Z,99465.53
2023-03-16T07:05:56.175Z,99469.08
2023-03-16T07:08:42.055Z,99472.52
2023-03-16T07:11:09.362Z,99473.18
2023-03-16T07:13:36.207Z,99470.00
2023-03-16T07:16:04.322Z,99469.98
2023-03-16T07:18:37.456Z,99471.13
2023-03-16T07:21:04.234Z,99473.30
2023-03-16T07:23:33.826Z,99477.70
2023-03-16T07:26:03.444Z,99483.28
2023-03-16T07:28:34.561Z,99485.59
2023-03-16T07:31:04.360Z,99480.27
2023-03-16T07:33:37.737Z,99483.83
2023-03-16T07:36:06.314Z,99483.05
2023-03-16T07:38:33.809Z,99484.36
2023-03-16T07:41:05.098Z,99487.91
2023-03-16T07:43:33.804Z,99493.17
2023-03-16T07:46:01.117Z,99495.46
2023-03-16T07:48:28.973Z,99496.75
2023-03-16T07:50:59.273Z,99495.98
2023-03-16T07:53:32.688Z,99498.07
2023-03-16T07:56:12.036Z,99501.48
2023-03-16T07:58:39.148Z,99496.41
2023-03-16T08:01:05.996Z,99498.13
2023-03-16T08:03:33.670Z,99499.80
2023-03-16T08:06:04.837Z,99503.73
2023-03-16T08:08:32.726Z,99501.62
2023-03-16T08:11:00.211Z,99498.97
2023-03-16T08:13:36.128Z,99496.88
2023-03-16T08:16:04.809Z,99495.83
2023-03-16T08:18:36.841Z,99494.98
2023-03-16T08:21:04.298Z,99492.84
2023-03-16T08:23:33.008Z,99489.48
2023-03-16T08:26:00.516Z,99486.89
2023-03-16T08:28:29.835Z,99490.55
2023-03-16T08:30:57.779Z,99489.36
2023-03-16T08:33:36.543Z,99489.33
2023-03-16T08:36:06.856Z,99492.88
2023-03-16T08:38:34.372Z,99494.30
2023-03-16T08:41:04.426Z,99497.50
2023-03-16T08:43:32.066Z,99499.32
2023-03-16T08:46:05.592Z,99501.48
2023-03-16T08:48:42.749Z,99508.15
2023-03-16T08:51:12.358Z,99515.01
2023-03-16T08:53:39.583Z,99518.14
2023-03-16T08:56:08.015Z,99511.18
2023-03-16T08:58:35.241Z,99511.02
2023-03-16T09:01:03.294Z,99512.94
2023-03-16T09:03:34.674Z,99514.88
2023-03-16T09:06:05.036Z,99511.91
2023-03-16T09:08:31.950Z,99515.73
2023-03-16T09:11:14.306Z,99521.09
2023-03-16T09:14:06.515Z,99521.56
2023-03-16T09:16:35.797Z,99523.46
2023-03-16T09:19:11.822Z,99524.98
2023-03-16T09:21:39.361Z,99528.27
2023-03-16T09:24:08.374Z,99527.02
2023-03-16T09:26:39.183Z,99525.98
2023-03-16T09:29:06.445Z,99524.05
2023-03-16T09:31:35.698Z,99519.79
2023-03-16T09:34:05.411Z,99521.33
2023-03-16T09:36:35.316Z,99516.36
2023-03-16T09:39:04.391Z,99520.62
2023-03-16T09:41:44.113Z,99521.04
2023-03-16T09:44:14.622Z,99520.40
2023-03-16T09:46:46.654Z,99522.73
2023-03-16T09:49:20.348Z,99520.58
2023-03-16T09:52:02.724Z,99520.16
2023-03-16T09:58:05.242Z,99517.63
2023-03-16T10:00:46.967Z,99515.35
2023-03-16T10:07:24.670Z,99510.56
2023-03-16T10:10:35.161Z,99501.20
2023-03-16T10:13:22.722Z,99499.13
2023-03-16T10:15:50.414Z,99503.63
2023-03-16T10:18:29.676Z,99504.25
2023-03-16T10:20:58.010Z,99503.70
2023-03-16T10:23:25.485Z,99505.25
2023-03-16T10:25:59.954Z,99503.65
2023-03-16T10:28:31.801Z,99498.28
2023-03-16T10:31:04.245Z,99496.67
2023-03-16T10:33:35.024Z,99497.94
2023-03-16T10:36:29.780Z,99496.42
2023-03-16T10:39:21.618Z,99495.65
2023-03-16T10:41:55.524Z,99495.06
2023-03-16T10:44:26.420Z,99493.40
2023-03-16T10:47:02.412Z,99499.22
2023-03-16T10:49:34.288Z,99497.69
2023-03-16T10:52:04.273Z,99503.27
2023-03-16T10:54:33.054Z,99499.54
2023-03-16T10:57:01.439Z,99502.27
2023-03-16T10:59:28.830Z,99498.89
2023-03-16T11:01:55.540Z,99497.80
2023-03-16T11:04:22.478Z,99497.25
2023-03-16T11:06:53.677Z,99493.21
2023-03-16T11:09:24.111Z,99490.51
2023-03-16T11:11:51.757Z,99486.11
2023-03-16T11:14:19.496Z,99480.54
2023-03-16T11:16:58.096Z,99481.74
2023-03-16T11:19:28.611Z,99479.44
2023-03-16T11:22:13.800Z,99478.48
2023-03-16T11:24:43.928Z,99469.14
2023-03-16T11:27:31.480Z,99474.05
2023-03-16T11:30:04.739Z,99475.61
2023-03-16T11:32:39.662Z,99474.73
2023-03-16T11:35:12.921Z,99471.56
2023-03-16T11:37:59.205Z,99469.39
2023-03-16T11:40:40.948Z,99473.25
2023-03-16T11:43:37.467Z,99470.84
2023-03-16T11:46:22.816Z,99474.70
2023-03-16T11:48:59.426Z,99478.58
2023-03-16T11:51:28.991Z,99480.79
2023-03-16T11:54:08.991Z,99480.45
2023-03-16T11:56:39.062Z,99476.64
2023-03-16T11:59:24.814Z,99475.71
2023-03-16T12:02:00.266Z,99478.48
2023-03-16T12:04:28.288Z,99481.03
2023-03-16T12:07:02.580Z,99483.20
2023-03-16T12:09:42.215Z,99486.88
2023-03-16T12:12:24.405Z,99484.44
2023-03-16T12:14:54.716Z,99486.74
2023-03-16T12:17:25.133Z,99492.92
2023-03-16T12:19:54.435Z,99495.02
2023-03-16T12:22:41.497Z,99497.36
2023-03-16T12:25:12.541Z,99498.42
2023-03-16T12:27:39.172Z,99497.75
2023-03-16T12:30:05.765Z,99498.11
2023-03-16T12:32:34.044Z,99500.38
2023-03-16T12:35:21.733Z,99499.20
2023-03-16T12:37:55.636Z,99507.10
2023-03-16T12:40:44.000Z,99508.40
2023-03-16T12:43:26.557Z,99510.42
2023-03-16T12:46:01.503Z,99512.23
2023-03-16T12:48:29.732Z,99517.65
2023-03-16T12:50:57.923Z,99512.05
2023-03-16T12:53:28.376Z,99519.48
2023-03-16T12:55:56.698Z,99521.63
2023-03-16T12:58:23.802Z,99524.52
2023-03-16T13:00:57.688Z,99524.02
2023-03-16T13:03:24.696Z,99528.39
2023-03-16T13:05:53.416Z,99533.23
2023-03-16T13:08:20.853Z,99533.16
2023-03-16T13:11:11.518Z,99533.08
2023-03-16T13:13:52.190Z,99532.30
